sensor_id;sensor_type;location;lat;lon;timestamp;pressure;altitude;pressure_sealevel;temperature;humidity
76128;BME280;64873;50.102;14.434;2023-04-03T00:02:23;100122.28;;;3.88;67.93
76128;BME280;64873;50.102;14.434;2023-04-03T00:04:48;100118.28;;;3.84;67.68
76128;BME280;64873;50.102;14.434;2023-04-03T00:07:13;100118.28;;;3.84;67.57
76128;BME280;64873;50.102;14.434;2023-04-03T00:09:40;100126.22;;;3.84;67.60
76128;BME280;64873;50.102;14.434;2023-04-03T00:12:05;100119.28;;;3.83;67.72
76128;BME280;64873;50.102;14.434;2023-04-03T00:14:31;100113.91;;;3.75;67.64
76128;BME280;64873;50.102;14.434;2023-04-03T00:16:56;100118.50;;;3.73;67.65
76128;BME280;64873;50.102;14.434;2023-04-03T00:19:21;100126.53;;;3.81;67.52
76128;BME280;64873;50.102;14.434;2023-04-03T00:21:47;100117.69;;;3.72;67.61
76128;BME280;64873;50.102;14.434;2023-04-03T00:24:12;100126.00;;;3.78;67.87
76128;BME280;64873;50.102;14.434;2023-04-03T00:26:38;100120.16;;;3.74;68.28
76128;BME280;64873;50.102;14.434;2023-04-03T00:29:03;100125.34;;;3.76;68.05
76128;BME280;64873;50.102;14.434;2023-04-03T00:31:28;100125.78;;;3.71;68.08
76128;BME280;64873;50.102;14.434;2023-04-03T00:33:54;100111.63;;;3.62;67.95
76128;BME280;64873;50.102;14.434;2023-04-03T00:36:19;100127.13;;;3.75;67.54
76128;BME280;64873;50.102;14.434;2023-04-03T00:38:45;100126.28;;;3.74;67.84
76128;BME280;64873;50.102;14.434;2023-04-03T00:41:10;100128.25;;;3.72;67.84
76128;BME280;64873;50.102;14.434;2023-04-03T00:43:36;100138.00;;;3.72;67.67
76128;BME280;64873;50.102;14.434;2023-04-03T00:46:02;100121.84;;;3.57;67.94
76128;BME280;64873;50.102;14.434;2023-04-03T00:48:45;100131.28;;;3.60;67.65
76128;BME280;64873;50.102;14.434;2023-04-03T00:51:25;100139.97;;;3.52;66.86
76128;BME280;64873;50.102;14.434;2023-04-03T00:53:58;100143.72;;;3.50;67.04
76128;BME280;64873;50.102;14.434;2023-04-03T00:56:26;100131.88;;;3.36;67.01
76128;BME280;64873;50.102;14.434;2023-04-03T00:59:06;100144.31;;;3.43;66.61
76128;BME280;64873;50.102;14.434;2023-04-03T01:01:34;100138.81;;;3.37;66.06
76128;BME280;64873;50.102;14.434;2023-04-03T01:04:00;100140.91;;;3.33;66.17
76128;BME280;64873;50.102;14.434;2023-04-03T01:06:31;100150.53;;;3.34;65.05
76128;BME280;64873;50.102;14.434;2023-04-03T01:08:58;100140.84;;;3.25;64.24
76128;BME280;64873;50.102;14.434;2023-04-03T01:11:24;100149.66;;;3.34;63.55
76128;BME280;64873;50.102;14.434;2023-04-03T01:13:50;100140.53;;;3.28;63.23
76128;BME280;64873;50.102;14.434;2023-04-03T01:16:16;100152.84;;;3.37;63.30
76128;BME280;64873;50.102;14.434;2023-04-03T01:18:42;100165.22;;;3.37;63.37
76128;BME280;64873;50.102;14.434;2023-04-03T01:21:54;100169.44;;;3.30;62.58
76128;BME280;64873;50.102;14.434;2023-04-03T01:24:31;100151.59;;;3.14;62.50
76128;BME280;64873;50.102;14.434;2023-04-03T01:26:58;100158.13;;;3.10;61.86
76128;BME280;64873;50.102;14.434;2023-04-03T01:29:23;100171.81;;;3.05;61.03
76128;BME280;64873;50.102;14.434;2023-04-03T01:32:00;100175.75;;;2.91;60.95
76128;BME280;64873;50.102;14.434;2023-04-03T01:34:27;100167.16;;;2.80;61.03
76128;BME280;64873;50.102;14.434;2023-04-03T01:36:53;100170.53;;;2.72;60.13
76128;BME280;64873;50.102;14.434;2023-04-03T01:39:19;100183.34;;;2.67;59.88
76128;BME280;64873;50.102;14.434;2023-04-03T01:41:46;100170.03;;;2.49;59.64
76128;BME280;64873;50.102;14.434;2023-04-03T01:44:12;100188.38;;;2.51;59.47
76128;BME280;64873;50.102;14.434;2023-04-03T01:46:38;100194.63;;;2.50;59.28
76128;BME280;64873;50.102;14.434;2023-04-03T01:49:04;100184.78;;;2.42;59.20
76128;BME280;64873;50.102;14.434;2023-04-03T01:51:30;100179.81;;;2.29;58.90
76128;BME280;64873;50.102;14.434;2023-04-03T01:53:55;100198.66;;;2.34;59.37
76128;BME280;64873;50.102;14.434;2023-04-03T01:56:21;100191.88;;;2.22;58.89
76128;BME280;64873;50.102;14.434;2023-04-03T01:58:47;100205.88;;;2.23;59.15
76128;BME280;64873;50.102;14.434;2023-04-03T02:01:12;100206.06;;;2.11;59.17
76128;BME280;64873;50.102;14.434;2023-04-03T02:03:38;100194.25;;;1.96;59.68
76128;BME280;64873;50.102;14.434;2023-04-03T02:06:03;100216.47;;;1.94;59.51
76128;BME280;64873;50.102;14.434;2023-04-03T02:08:29;100214.66;;;1.84;59.54
76128;BME280;64873;50.102;14.434;2023-04-03T02:10:54;100229.19;;;1.79;60.28
76128;BME280;64873;50.102;14.434;2023-04-03T02:13:20;100213.38;;;1.79;60.39
76128;BME280;64873;50.102;14.434;2023-04-03T02:15:46;100226.97;;;1.74;60.73
76128;BME280;64873;50.102;14.434;2023-04-03T02:18:11;100223.63;;;1.63;60.49
76128;BME280;64873;50.102;14.434;2023-04-03T02:20:37;100226.94;;;1.55;61.17
76128;BME280;64873;50.102;14.434;2023-04-03T02:23:03;100227.72;;;1.46;61.49
76128;BME280;64873;50.102;14.434;2023-04-03T02:25:30;100221.06;;;1.32;61.66
76128;BME280;64873;50.102;14.434;2023-04-03T02:27:56;100224.91;;;1.28;61.68
76128;BME280;64873;50.102;14.434;2023-04-03T02:30:21;100210.75;;;1.19;62.45
76128;BME280;64873;50.102;14.434;2023-04-03T02:32:47;100217.09;;;1.07;62.67
76128;BME280;64873;50.102;14.434;2023-04-03T02:35:12;100219.88;;;1.15;61.73
76128;BME280;64873;50.102;14.434;2023-04-03T02:37:38;100226.38;;;1.11;62.02
76128;BME280;64873;50.102;14.434;2023-04-03T02:40:04;100213.81;;;0.94;62.75
76128;BME280;64873;50.102;14.434;2023-04-03T02:42:30;100228.41;;;0.98;62.41
76128;BME280;64873;50.102;14.434;2023-04-03T02:44:55;100232.84;;;0.97;63.13
76128;BME280;64873;50.102;14.434;2023-04-03T02:47:21;100228.94;;;0.92;62.98
76128;BME280;64873;50.102;14.434;2023-04-03T02:49:47;100229.72;;;0.83;63.82
76128;BME280;64873;50.102;14.434;2023-04-03T02:52:13;100246.59;;;0.80;63.62
76128;BME280;64873;50.102;14.434;2023-04-03T02:54:39;100250.19;;;0.79;63.42
76128;BME280;64873;50.102;14.434;2023-04-03T02:57:05;100242.38;;;0.68;63.67
76128;BME280;64873;50.102;14.434;2023-04-03T02:59:34;100247.19;;;0.63;63.59
76128;BME280;64873;50.102;14.434;2023-04-03T03:01:59;100237.03;;;0.58;63.79
76128;BME280;64873;50.102;14.434;2023-04-03T03:04:25;100250.91;;;0.60;63.74
76128;BME280;64873;50.102;14.434;2023-04-03T03:06:50;100244.75;;;0.50;64.36
76128;BME280;64873;50.102;14.434;2023-04-03T03:09:16;100254.06;;;0.54;63.58
76128;BME280;64873;50.102;14.434;2023-04-03T03:11:41;100255.25;;;0.50;63.79
76128;BME280;64873;50.102;14.434;2023-04-03T03:14:07;100252.78;;;0.48;63.60
76128;BME280;64873;50.102;14.434;2023-04-03T03:16:32;100237.69;;;0.30;63.32
76128;BME280;64873;50.102;14.434;2023-04-03T03:18:58;100253.78;;;0.36;63.14
76128;BME280;64873;50.102;14.434;2023-04-03T03:21:23;100243.44;;;0.23;63.92
76128;BME280;64873;50.102;14.434;2023-04-03T03:23:49;100244.81;;;0.18;63.89
76128;BME280;64873;50.102;14.434;2023-04-03T03:26:14;100269.34;;;0.28;64.31
76128;BME280;64873;50.102;14.434;2023-04-03T03:28:40;100261.59;;;0.26;63.74
76128;BME280;64873;50.102;14.434;2023-04-03T03:31:06;100272.09;;;0.26;64.51
76128;BME280;64873;50.102;14.434;2023-04-03T03:33:32;100282.28;;;0.20;64.58
76128;BME280;64873;50.102;14.434;2023-04-03T03:35:59;100272.16;;;0.15;64.29
76128;BME280;64873;50.102;14.434;2023-04-03T03:38:24;100283.16;;;0.09;64.98
76128;BME280;64873;50.102;14.434;2023-04-03T03:40:51;100272.66;;;0.09;65.46
76128;BME280;64873;50.102;14.434;2023-04-03T03:43:17;100271.00;;;0.08;65.15
76128;BME280;64873;50.102;14.434;2023-04-03T03:45:43;100282.00;;;0.02;64.67
76128;BME280;64873;50.102;14.434;2023-04-03T03:48:08;100280.19;;;0.03;64.82
76128;BME280;64873;50.102;14.434;2023-04-03T03:50:33;100277.44;;;0.04;65.20
76128;BME280;64873;50.102;14.434;2023-04-03T03:52:59;100288.91;;;0.03;65.42
76128;BME280;64873;50.102;14.434;2023-04-03T03:55:25;100270.59;;;-0.19;65.43
76128;BME280;64873;50.102;14.434;2023-04-03T03:57:51;100291.34;;;-0.05;65.60
76128;BME280;64873;50.102;14.434;2023-04-03T04:00:17;100270.09;;;-0.13;65.87
76128;BME280;64873;50.102;14.434;2023-04-03T04:02:43;100286.31;;;-0.08;65.19
76128;BME280;64873;50.102;14.434;2023-04-03T04:05:08;100282.06;;;-0.20;65.32
76128;BME280;64873;50.102;14.434;2023-04-03T04:07:34;100272.75;;;-0.24;65.82
76128;BME280;64873;50.102;14.434;2023-04-03T04:10:00;100292.06;;;-0.14;65.66
76128;BME280;64873;50.102;14.434;2023-04-03T04:12:25;100284.44;;;-0.17;66.55
76128;BME280;64873;50.102;14.434;2023-04-03T04:14:51;100291.38;;;-0.28;65.79
76128;BME280;64873;50.102;14.434;2023-04-03T04:17:16;100293.28;;;-0.30;65.56
76128;BME280;64873;50.102;14.434;2023-04-03T04:19:42;100306.78;;;-0.23;65.11
76128;BME280;64873;50.102;14.434;2023-04-03T04:22:07;100302.38;;;-0.22;65.42
76128;BME280;64873;50.102;14.434;2023-04-03T04:24:33;100305.94;;;-0.23;65.77
76128;BME280;64873;50.102;14.434;2023-04-03T04:26:58;100298.06;;;-0.23;65.22
76128;BME280;64873;50.102;14.434;2023-04-03T04:29:24;100318.72;;;-0.30;65.48
76128;BME280;64873;50.102;14.434;2023-04-03T04:31:49;100313.22;;;-0.27;65.97
76128;BME280;64873;50.102;14.434;2023-04-03T04:34:15;100315.38;;;-0.32;65.90
76128;BME280;64873;50.102;14.434;2023-04-03T04:36:40;100319.94;;;-0.34;66.08
76128;BME280;64873;50.102;14.434;2023-04-03T04:39:06;100315.75;;;-0.37;66.28
76128;BME280;64873;50.102;14.434;2023-04-03T04:41:32;100321.94;;;-0.38;66.46
76128;BME280;64873;50.102;14.434;2023-04-03T04:43:57;100322.78;;;-0.37;65.81
76128;BME280;64873;50.102;14.434;2023-04-03T04:46:23;100336.16;;;-0.40;65.98
76128;BME280;64873;50.102;14.434;2023-04-03T04:48:48;100333.41;;;-0.39;66.29
76128;BME280;64873;50.102;14.434;2023-04-03T04:51:14;100327.19;;;-0.38;66.61
76128;BME280;64873;50.102;14.434;2023-04-03T04:53:39;100336.03;;;-0.39;65.92
76128;BME280;64873;50.102;14.434;2023-04-03T04:56:05;100332.09;;;-0.44;66.70
76128;BME280;64873;50.102;14.434;2023-04-03T04:58:31;100328.78;;;-0.46;66.25
76128;BME280;64873;50.102;14.434;2023-04-03T05:01:01;100345.94;;;-0.42;66.35
76128;BME280;64873;50.102;14.434;2023-04-03T05:03:27;100338.66;;;-0.50;66.50
76128;BME280;64873;50.102;14.434;2023-04-03T05:05:52;100324.34;;;-0.57;66.33
76128;BME280;64873;50.102;14.434;2023-04-03T05:08:18;100341.78;;;-0.45;66.61
76128;BME280;64873;50.102;14.434;2023-04-03T05:10:45;100334.84;;;-0.46;66.75
76128;BME280;64873;50.102;14.434;2023-04-03T05:13:11;100336.75;;;-0.48;67.09
76128;BME280;64873;50.102;14.434;2023-04-03T05:15:36;100337.34;;;-0.44;66.32
76128;BME280;64873;50.102;14.434;2023-04-03T05:18:03;100339.84;;;-0.43;66.73
76128;BME280;64873;50.102;14.434;2023-04-03T05:20:28;100347.25;;;-0.48;66.80
76128;BME280;64873;50.102;14.434;2023-04-03T05:22:54;100343.91;;;-0.50;66.80
76128;BME280;64873;50.102;14.434;2023-04-03T05:25:19;100349.03;;;-0.48;67.05
76128;BME280;64873;50.102;14.434;2023-04-03T05:27:45;100348.34;;;-0.39;66.69
76128;BME280;64873;50.102;14.434;2023-04-03T05:30:11;100353.94;;;-0.44;66.81
76128;BME280;64873;50.102;14.434;2023-04-03T05:32:37;100355.38;;;-0.40;66.36
76128;BME280;64873;50.102;14.434;2023-04-03T05:35:04;100363.25;;;-0.40;66.12
76128;BME280;64873;50.102;14.434;2023-04-03T05:37:31;100358.34;;;-0.44;66.70
76128;BME280;64873;50.102;14.434;2023-04-03T05:39:56;100370.88;;;-0.37;67.46
76128;BME280;64873;50.102;14.434;2023-04-03T05:42:22;100368.25;;;-0.25;66.38
76128;BME280;64873;50.102;14.434;2023-04-03T05:44:48;100348.22;;;-0.38;67.02
76128;BME280;64873;50.102;14.434;2023-04-03T05:47:15;100368.25;;;-0.25;66.97
76128;BME280;64873;50.102;14.434;2023-04-03T05:49:41;100364.66;;;-0.24;66.50
76128;BME280;64873;50.102;14.434;2023-04-03T05:52:20;100358.22;;;-0.32;67.06
76128;BME280;64873;50.102;14.434;2023-04-03T05:54:46;100370.25;;;-0.18;66.10
76128;BME280;64873;50.102;14.434;2023-04-03T05:57:14;100376.38;;;-0.17;66.92
76128;BME280;64873;50.102;14.434;2023-04-03T05:59:39;100369.81;;;-0.12;66.32
76128;BME280;64873;50.102;14.434;2023-04-03T06:02:05;100372.66;;;-0.15;66.69
76128;BME280;64873;50.102;14.434;2023-04-03T06:04:30;100362.50;;;-0.19;66.82
76128;BME280;64873;50.102;14.434;2023-04-03T06:06:57;100369.91;;;-0.24;66.29
76128;BME280;64873;50.102;14.434;2023-04-03T06:09:25;100390.91;;;-0.02;66.86
76128;BME280;64873;50.102;14.434;2023-04-03T06:11:52;100390.91;;;-0.02;66.36
76128;BME280;64873;50.102;14.434;2023-04-03T06:14:17;100384.97;;;-0.04;66.25
76128;BME280;64873;50.102;14.434;2023-04-03T06:16:44;100375.63;;;-0.08;66.82
76128;BME280;64873;50.102;14.434;2023-04-03T06:19:11;100375.41;;;-0.05;66.06
76128;BME280;64873;50.102;14.434;2023-04-03T06:21:38;100386.63;;;0.08;65.59
76128;BME280;64873;50.102;14.434;2023-04-03T06:24:05;100403.31;;;0.18;65.69
76128;BME280;64873;50.102;14.434;2023-04-03T06:26:31;100387.91;;;0.14;65.63
76128;BME280;64873;50.102;14.434;2023-04-03T06:28:57;100387.75;;;0.26;64.90
76128;BME280;64873;50.102;14.434;2023-04-03T06:31:23;100400.31;;;0.23;64.91
76128;BME280;64873;50.102;14.434;2023-04-03T06:33:48;100408.59;;;0.18;65.51
76128;BME280;64873;50.102;14.434;2023-04-03T06:36:14;100407.63;;;0.19;64.64
76128;BME280;64873;50.102;14.434;2023-04-03T06:38:39;100416.44;;;0.30;64.51
76128;BME280;64873;50.102;14.434;2023-04-03T06:41:05;100422.88;;;0.37;64.32
76128;BME280;64873;50.102;14.434;2023-04-03T06:43:30;100426.81;;;0.42;63.93
76128;BME280;64873;50.102;14.434;2023-04-03T06:45:58;100429.03;;;0.47;63.97
76128;BME280;64873;50.102;14.434;2023-04-03T06:48:24;100429.28;;;0.55;63.72
76128;BME280;64873;50.102;14.434;2023-04-03T06:50:49;100435.25;;;0.57;63.32
76128;BME280;64873;50.102;14.434;2023-04-03T06:53:15;100430.00;;;0.57;63.64
76128;BME280;64873;50.102;14.434;2023-04-03T06:55:40;100442.78;;;0.62;63.52
76128;BME280;64873;50.102;14.434;2023-04-03T06:58:06;100441.69;;;0.64;63.65
76128;BME280;64873;50.102;14.434;2023-04-03T07:00:33;100435.84;;;0.61;63.56
76128;BME280;64873;50.102;14.434;2023-04-03T07:02:59;100450.84;;;0.81;62.74
76128;BME280;64873;50.102;14.434;2023-04-03T07:05:25;100449.81;;;0.72;62.94
76128;BME280;64873;50.102;14.434;2023-04-03T07:07:51;100446.13;;;0.96;62.25
76128;BME280;64873;50.102;14.434;2023-04-03T07:10:17;100453.06;;;0.97;60.85
76128;BME280;64873;50.102;14.434;2023-04-03T07:12:42;100453.56;;;0.91;61.39
76128;BME280;64873;50.102;14.434;2023-04-03T07:15:08;100442.88;;;0.71;61.10
76128;BME280;64873;50.102;14.434;2023-04-03T07:17:34;100453.72;;;0.78;61.52
76128;BME280;64873;50.102;14.434;2023-04-03T07:20:01;100449.09;;;1.02;61.03
76128;BME280;64873;50.102;14.434;2023-04-03T07:22:27;100458.91;;;1.00;60.92
76128;BME280;64873;50.102;14.434;2023-04-03T07:24:52;100459.06;;;1.20;60.54
76128;BME280;64873;50.102;14.434;2023-04-03T07:27:18;100454.81;;;1.08;59.80
76128;BME280;64873;50.102;14.434;2023-04-03T07:29:43;100456.56;;;1.18;60.18
76128;BME280;64873;50.102;14.434;2023-04-03T07:32:09;100447.69;;;1.19;60.06
76128;BME280;64873;50.102;14.434;2023-04-03T07:34:35;100455.25;;;1.33;60.15
76128;BME280;64873;50.102;14.434;2023-04-03T07:37:02;100454.53;;;1.52;59.52
76128;BME280;64873;50.102;14.434;2023-04-03T07:39:28;100459.19;;;1.60;59.31
76128;BME280;64873;50.102;14.434;2023-04-03T07:41:54;100460.84;;;1.82;59.05
76128;BME280;64873;50.102;14.434;2023-04-03T07:44:22;100454.47;;;1.84;58.57
76128;BME280;64873;50.102;14.434;2023-04-03T07:46:48;100446.97;;;2.20;57.44
76128;BME280;64873;50.102;14.434;2023-04-03T07:49:14;100457.69;;;2.38;57.40
76128;BME280;64873;50.102;14.434;2023-04-03T07:51:39;100451.06;;;2.44;56.85
76128;BME280;64873;50.102;14.434;2023-04-03T07:54:05;100464.25;;;2.03;56.57
76128;BME280;64873;50.102;14.434;2023-04-03T07:56:31;100442.53;;;2.21;56.77
76128;BME280;64873;50.102;14.434;2023-04-03T07:58:57;100450.72;;;2.18;57.24
76128;BME280;64873;50.102;14.434;2023-04-03T08:01:22;100457.44;;;2.01;57.05
76128;BME280;64873;50.102;14.434;2023-04-03T08:03:48;100460.25;;;1.78;58.08
76128;BME280;64873;50.102;14.434;2023-04-03T08:06:13;100456.34;;;1.73;57.59
76128;BME280;64873;50.102;14.434;2023-04-03T08:08:40;100459.63;;;1.65;57.23
76128;BME280;64873;50.102;14.434;2023-04-03T08:11:05;100460.94;;;1.80;57.14
76128;BME280;64873;50.102;14.434;2023-04-03T08:13:33;100458.38;;;1.90;57.11
76128;BME280;64873;50.102;14.434;2023-04-03T08:16:08;100453.25;;;1.68;57.43
76128;BME280;64873;50.102;14.434;2023-04-03T08:18:34;100451.91;;;1.73;57.09
76128;BME280;64873;50.102;14.434;2023-04-03T08:20:59;100451.22;;;1.71;57.81
76128;BME280;64873;50.102;14.434;2023-04-03T08:23:25;100458.38;;;1.69;57.27
76128;BME280;64873;50.102;14.434;2023-04-03T08:25:51;100449.78;;;1.67;56.99
76128;BME280;64873;50.102;14.434;2023-04-03T08:28:17;100455.34;;;1.95;56.08
76128;BME280;64873;50.102;14.434;2023-04-03T08:30:42;100453.63;;;1.84;56.48
76128;BME280;64873;50.102;14.434;2023-04-03T08:33:09;100445.44;;;1.87;55.87
76128;BME280;64873;50.102;14.434;2023-04-03T08:35:39;100455.59;;;1.92;56.22
76128;BME280;64873;50.102;14.434;2023-04-03T08:38:06;100452.81;;;1.93;55.65
76128;BME280;64873;50.102;14.434;2023-04-03T08:40:31;100442.63;;;2.09;54.33
76128;BME280;64873;50.102;14.434;2023-04-03T08:43:00;100453.53;;;1.95;54.65
76128;BME280;64873;50.102;14.434;2023-04-03T08:48:24;100450.59;;;1.89;57.58
76128;BME280;64873;50.102;14.434;2023-04-03T08:50:56;100453.31;;;1.77;56.68
76128;BME280;64873;50.102;14.434;2023-04-03T08:53:29;100454.47;;;1.84;56.72
76128;BME280;64873;50.102;14.434;2023-04-03T08:55:58;100462.53;;;1.93;55.90
76128;BME280;64873;50.102;14.434;2023-04-03T08:58:42;100447.75;;;2.11;56.67
76128;BME280;64873;50.102;14.434;2023-04-03T09:01:20;100450.19;;;2.24;55.47
76128;BME280;64873;50.102;14.434;2023-04-03T09:03:46;100447.97;;;2.29;54.84
76128;BME280;64873;50.102;14.434;2023-04-03T09:06:25;100444.75;;;2.25;53.24
76128;BME280;64873;50.102;14.434;2023-04-03T09:09:11;100457.00;;;2.36;52.50
76128;BME280;64873;50.102;14.434;2023-04-03T09:11:55;100470.53;;;2.52;51.75
76128;BME280;64873;50.102;14.434;2023-04-03T09:14:57;100468.00;;;2.51;53.32
76128;BME280;64873;50.102;14.434;2023-04-03T09:22:51;100459.16;;;2.81;52.66
76128;BME280;64873;50.102;14.434;2023-04-03T09:25:23;100460.00;;;2.81;51.23
76128;BME280;64873;50.102;14.434;2023-04-03T09:27:51;100444.31;;;2.89;51.73
76128;BME280;64873;50.102;14.434;2023-04-03T09:30:24;100467.38;;;2.78;52.25
76128;BME280;64873;50.102;14.434;2023-04-03T09:32:55;100459.44;;;2.68;51.70
76128;BME280;64873;50.102;14.434;2023-04-03T09:35:26;100461.53;;;2.74;52.07
76128;BME280;64873;50.102;14.434;2023-04-03T09:38:01;100469.19;;;2.77;51.52
76128;BME280;64873;50.102;14.434;2023-04-03T09:40:39;100471.47;;;2.51;51.65
76128;BME280;64873;50.102;14.434;2023-04-03T09:45:44;100459.38;;;2.39;52.34
76128;BME280;64873;50.102;14.434;2023-04-03T09:53:34;100468.63;;;2.83;49.02
76128;BME280;64873;50.102;14.434;2023-04-03T09:58:51;100469.47;;;3.13;48.88
76128;BME280;64873;50.102;14.434;2023-04-03T10:01:33;100471.13;;;3.43;49.19
76128;BME280;64873;50.102;14.434;2023-04-03T10:04:18;100480.59;;;3.07;49.41
76128;BME280;64873;50.102;14.434;2023-04-03T10:06:47;100468.50;;;2.94;50.39
76128;BME280;64873;50.102;14.434;2023-04-03T10:14:37;100464.06;;;3.90;48.73
76128;BME280;64873;50.102;14.434;2023-04-03T10:19:42;100475.63;;;3.80;47.49
76128;BME280;64873;50.102;14.434;2023-04-03T10:22:37;100470.75;;;3.75;47.32
76128;BME280;64873;50.102;14.434;2023-04-03T10:25:03;100467.09;;;3.95;46.64
76128;BME280;64873;50.102;14.434;2023-04-03T10:27:42;100453.56;;;3.98;46.25
76128;BME280;64873;50.102;14.434;2023-04-03T10:32:54;100466.75;;;3.71;46.37
76128;BME280;64873;50.102;14.434;2023-04-03T10:35:42;100463.03;;;3.64;46.60
76128;BME280;64873;50.102;14.434;2023-04-03T10:44:12;100457.06;;;3.52;46.43
76128;BME280;64873;50.102;14.434;2023-04-03T10:46:45;100452.06;;;3.96;45.73
76128;BME280;64873;50.102;14.434;2023-04-03T10:49:29;100450.91;;;3.61;46.26
76128;BME280;64873;50.102;14.434;2023-04-03T10:54:39;100455.44;;;3.88;46.66
76128;BME280;64873;50.102;14.434;2023-04-03T10:57:08;100444.19;;;4.14;46.26
76128;BME280;64873;50.102;14.434;2023-04-03T10:59:51;100439.09;;;4.30;45.52
76128;BME280;64873;50.102;14.434;2023-04-03T11:02:25;100442.44;;;4.32;44.66
76128;BME280;64873;50.102;14.434;2023-04-03T11:04:56;100456.53;;;3.95;45.08
76128;BME280;64873;50.102;14.434;2023-04-03T11:07:27;100444.16;;;4.23;44.91
76128;BME280;64873;50.102;14.434;2023-04-03T11:10:02;100442.47;;;4.50;44.55
76128;BME280;64873;50.102;14.434;2023-04-03T11:15:02;100433.13;;;4.28;44.14
76128;BME280;64873;50.102;14.434;2023-04-03T11:17:33;100437.72;;;4.26;44.98
76128;BME280;64873;50.102;14.434;2023-04-03T11:20:08;100427.25;;;4.07;45.92
76128;BME280;64873;50.102;14.434;2023-04-03T11:22:51;100421.00;;;3.70;46.74
76128;BME280;64873;50.102;14.434;2023-04-03T11:25:23;100452.06;;;3.96;45.87
76128;BME280;64873;50.102;14.434;2023-04-03T11:27:55;100432.75;;;4.23;45.26
76128;BME280;64873;50.102;14.434;2023-04-03T11:35:56;100425.34;;;4.44;44.23
76128;BME280;64873;50.102;14.434;2023-04-03T11:38:30;100424.09;;;4.48;44.11
76128;BME280;64873;50.102;14.434;2023-04-03T11:41:01;100433.78;;;4.40;43.90
76128;BME280;64873;50.102;14.434;2023-04-03T11:43:31;100424.00;;;4.40;43.28
76128;BME280;64873;50.102;14.434;2023-04-03T11:46:04;100413.44;;;4.40;42.88
76128;BME280;64873;50.102;14.434;2023-04-03T11:50:59;100415.28;;;4.93;42.49
76128;BME280;64873;50.102;14.434;2023-04-03T11:55:57;100409.50;;;4.62;42.45
76128;BME280;64873;50.102;14.434;2023-04-03T11:58:29;100407.22;;;4.49;43.01
76128;BME280;64873;50.102;14.434;2023-04-03T12:01:06;100398.97;;;4.35;43.06
76128;BME280;64873;50.102;14.434;2023-04-03T12:08:54;100404.22;;;4.80;41.89
76128;BME280;64873;50.102;14.434;2023-04-03T12:11:37;100382.41;;;4.86;41.20
76128;BME280;64873;50.102;14.434;2023-04-03T12:14:04;100394.72;;;5.13;40.47
76128;BME280;64873;50.102;14.434;2023-04-03T12:16:42;100402.03;;;4.93;41.38
76128;BME280;64873;50.102;14.434;2023-04-03T12:27:02;100392.63;;;4.45;40.73
76128;BME280;64873;50.102;14.434;2023-04-03T12:38:10;100387.28;;;4.73;42.76
76128;BME280;64873;50.102;14.434;2023-04-03T12:46:18;100376.84;;;4.71;42.71
76128;BME280;64873;50.102;14.434;2023-04-03T12:51:18;100391.44;;;4.75;42.51
76128;BME280;64873;50.102;14.434;2023-04-03T12:53:45;100380.31;;;4.72;42.71
76128;BME280;64873;50.102;14.434;2023-04-03T12:56:28;100382.97;;;4.72;41.79
76128;BME280;64873;50.102;14.434;2023-04-03T12:59:13;100386.50;;;4.63;42.31
76128;BME280;64873;50.102;14.434;2023-04-03T13:01:39;100376.66;;;4.37;42.78
76128;BME280;64873;50.102;14.434;2023-04-03T13:04:05;100381.06;;;4.46;41.72
76128;BME280;64873;50.102;14.434;2023-04-03T13:06:43;100382.28;;;4.70;41.32
76128;BME280;64873;50.102;14.434;2023-04-03T13:09:30;100372.97;;;4.66;40.63
76128;BME280;64873;50.102;14.434;2023-04-03T13:12:15;100387.09;;;4.57;40.49
76128;BME280;64873;50.102;14.434;2023-04-03T13:14:52;100373.41;;;4.79;40.62
76128;BME280;64873;50.102;14.434;2023-04-03T13:17:19;100383.91;;;5.06;39.08
76128;BME280;64873;50.102;14.434;2023-04-03T13:19:45;100374.38;;;5.14;39.20
76128;BME280;64873;50.102;14.434;2023-04-03T13:22:33;100368.78;;;5.17;39.05
76128;BME280;64873;50.102;14.434;2023-04-03T13:25:06;100353.75;;;4.99;39.27
76128;BME280;64873;50.102;14.434;2023-04-03T13:27:34;100360.66;;;5.18;38.46
76128;BME280;64873;50.102;14.434;2023-04-03T13:30:02;100369.34;;;4.85;39.74
76128;BME280;64873;50.102;14.434;2023-04-03T13:32:30;100369.88;;;4.70;41.92
76128;BME280;64873;50.102;14.434;2023-04-03T13:34:56;100377.22;;;4.41;42.98
76128;BME280;64873;50.102;14.434;2023-04-03T13:37:24;100366.28;;;4.26;43.14
76128;BME280;64873;50.102;14.434;2023-04-03T13:42:34;100363.22;;;4.31;42.95
76128;BME280;64873;50.102;14.434;2023-04-03T13:45:22;100381.38;;;4.61;42.44
76128;BME280;64873;50.102;14.434;2023-04-03T13:47:50;100374.25;;;4.62;42.62
76128;BME280;64873;50.102;14.434;2023-04-03T13:50:22;100371.81;;;4.50;42.04
76128;BME280;64873;50.102;14.434;2023-04-03T13:53:03;100378.31;;;4.38;41.77
76128;BME280;64873;50.102;14.434;2023-04-03T13:55:37;100372.59;;;4.61;41.03
76128;BME280;64873;50.102;14.434;2023-04-03T13:58:20;100366.41;;;4.70;40.87
76128;BME280;64873;50.102;14.434;2023-04-03T14:00:53;100359.06;;;4.46;40.18
76128;BME280;64873;50.102;14.434;2023-04-03T14:05:59;100352.94;;;4.63;40.72
76128;BME280;64873;50.102;14.434;2023-04-03T14:08:26;100358.53;;;4.78;40.95
76128;BME280;64873;50.102;14.434;2023-04-03T14:10:52;100356.88;;;4.77;40.43
76128;BME280;64873;50.102;14.434;2023-04-03T14:13:20;100361.25;;;4.68;40.60
76128;BME280;64873;50.102;14.434;2023-04-03T14:15:47;100349.97;;;4.66;41.02
76128;BME280;64873;50.102;14.434;2023-04-03T14:18:16;100349.09;;;4.75;39.95
76128;BME280;64873;50.102;14.434;2023-04-03T14:20:43;100350.81;;;4.67;40.08
76128;BME280;64873;50.102;14.434;2023-04-03T14:23:09;100356.56;;;4.44;40.04